Time;durP1;ratioP1;P1;durP2;ratioP2;P2;SDS_P1;SDS_P2;PMS_P1;PMS_P2;Temp;Humidity;BMP_temperature;BMP_pressure;BME280_temperature;BME280_humidity;BME280_pressure;Samples;Min_cycle;Max_cycle;Signal;HPM_P1;HPM_P2
2021/12/24 00:00:42;;;;;;;;;;;;;;;;;;5052571;28;19916;-78
2021/12/24 00:03:08;;;;;;;;;;;;;;;;;;5071711;28;20371;-77
2021/12/24 00:05:34;;;;;;;;;;;;;;;;;;5054754;28;19924;-77
2021/12/24 00:07:59;;;;;;;;;;;;;;;;;;5076464;28;19913;-78
2021/12/24 00:10:25;;;;;;;;;;;;;;;;;;5052846;28;19938;-78
2021/12/24 00:13:01;;;;;;;;;;;;;;;;;;5049237;28;19917;-77
2021/12/24 00:37:04;;;;;;;;;;;;;;;;;;5049055;28;20346;-79
2021/12/24 00:39:30;;;;;;;;;;;;;;;;;;5053375;28;19913;-79
2021/12/24 00:41:57;;;;;;;;;;;;;;;;;;5074226;28;20004;-78
2021/12/24 00:44:23;;;;;;;;;;;;;;;;;;5047847;28;20351;-79
2021/12/24 00:46:50;;;;;;;;;;;;;;;;;;5054781;28;19950;-78
2021/12/24 00:49:16;;;;;;;;;;;;;;;;;;5053749;28;20279;-79
2021/12/24 00:56:56;;;;;;;;;;;;;;;;;;5051671;28;19931;-78
2021/12/24 00:59:21;;;;;;;;;;;;;;;;;;5049640;28;19912;-78
2021/12/24 01:01:47;;;;;;;;;;;;;;;;;;5046735;28;20001;-78
2021/12/24 01:04:12;;;;;;;;;;;;;;;;;;5052747;28;19958;-79
2021/12/24 01:06:38;;;;;;;;;;;;;;;;;;5049868;28;19913;-79
2021/12/24 01:09:03;;;;;;;;;;;;;;;;;;5072451;28;20018;-79
2021/12/24 01:11:30;;;;;;;;;;;;;;;;;;5072750;28;19913;-79
2021/12/24 01:13:55;;;;;;;;;;;;;;;;;;5076355;28;19917;-78
2021/12/24 01:16:29;;;;;;;;;;;;;;;;;;5051287;28;19927;-78
2021/12/24 01:24:11;;;;;;;;;;;;;;;;;;5055937;28;19967;-79
2021/12/24 01:26:45;;;;;;;;;;;;;;;;;;5049777;28;20094;-78
2021/12/24 01:40:19;;;;;;;;;;;;;;;;;;5046227;28;19918;-78
2021/12/24 01:42:48;;;;;;;;;;;;;;;;;;5048365;28;20400;-79
2021/12/24 01:45:13;;;;;;;;;;;;;;;;;;5052554;28;19924;-79
2021/12/24 01:47:39;;;;;;;;;;;;;;;;;;5051177;28;20288;-79
2021/12/24 01:50:07;;;;;;;;;;;;;;;;;;5048739;28;19913;-79
2021/12/24 01:52:32;;;;;;;;;;;;;;;;;;5057817;28;19912;-78
2021/12/24 01:55:00;;;;;;;;;;;;;;;;;;5059525;28;19932;-79
2021/12/24 01:57:25;;;;;;;;;;;;;;;;;;5052655;28;19943;-78
2021/12/24 01:59:51;;;;;;;;;;;;;;;;;;5046304;28;20368;-77
2021/12/24 02:02:16;;;;;;;;;;;;;;;;;;5072156;28;19951;-79
2021/12/24 02:04:44;;;;;;;;;;;;;;;;;;5048990;28;19913;-79
2021/12/24 02:07:09;;;;;;;;;;;;;;;;;;5045706;28;19916;-79
2021/12/24 02:09:36;;;;;;;;;;;;;;;;;;5051400;28;20004;-79
2021/12/24 02:12:05;;;;;;;;;;;;;;;;;;5049582;28;20284;-79
2021/12/24 02:14:35;;;;;;;;;;;;;;;;;;5045570;28;19912;-77
2021/12/24 02:30:44;;;;;;;;;;;;;;;;;;5046970;28;19963;-78
2021/12/24 02:33:09;;;;;;;;;;;;;;;;;;5049941;28;20430;-76
2021/12/24 02:35:37;;;;;;;;;;;;;;;;;;5046235;28;19913;-77
2021/12/24 02:38:05;;;;;;;;;;;;;;;;;;5045703;28;19913;-78
2021/12/24 02:40:31;;;;;;;;;;;;;;;;;;5051281;28;19935;-76
2021/12/24 02:42:59;;;;;;;;;;;;;;;;;;5044934;28;20372;-76
2021/12/24 02:45:26;;;;;;;;;;;;;;;;;;5046579;28;19927;-76
2021/12/24 02:56:01;;;;;;;;;;;;;;;;;;5047723;28;19924;-77
2021/12/24 02:58:26;;;;;;;;;;;;;;;;;;5048520;28;20229;-78
2021/12/24 03:00:52;;;;;;;;;;;;;;;;;;5052298;28;19958;-77
2021/12/24 03:03:17;;;;;;;;;;;;;;;;;;5051744;28;19927;-77
2021/12/24 03:05:42;;;;;;;;;;;;;;;;;;5050047;28;20372;-77
2021/12/24 03:08:08;;;;;;;;;;;;;;;;;;5052859;28;19920;-78
2021/12/24 03:10:35;;;;;;;;;;;;;;;;;;5052373;28;19916;-78
2021/12/24 03:13:06;;;;;;;;;;;;;;;;;;5046822;28;19996;-78
2021/12/24 03:15:32;;;;;;;;;;;;;;;;;;5078593;28;19923;-77
2021/12/24 03:18:02;;;;;;;;;;;;;;;;;;5050553;28;20380;-77
2021/12/24 03:20:33;;;;;;;;;;;;;;;;;;5050465;28;19930;-76
2021/12/24 03:23:10;;;;;;;;;;;;;;;;;;5051574;28;21568;-78
2021/12/24 03:25:36;;;;;;;;;;;;;;;;;;5051492;28;19935;-76
2021/12/24 03:28:02;;;;;;;;;;;;;;;;;;5075502;28;19913;-77
2021/12/24 03:30:30;;;;;;;;;;;;;;;;;;5050685;28;19920;-76
2021/12/24 03:32:55;;;;;;;;;;;;;;;;;;5051630;28;19939;-77
2021/12/24 03:35:21;;;;;;;;;;;;;;;;;;5051954;28;19916;-76
2021/12/24 03:37:48;;;;;;;;;;;;;;;;;;5050387;28;20014;-77
2021/12/24 03:40:14;;;;;;;;;;;;;;;;;;5054855;28;19921;-76
2021/12/24 03:42:41;;;;;;;;;;;;;;;;;;5054451;28;19928;-75
2021/12/24 03:45:22;;;;;;;;;;;;;;;;;;5049806;28;20411;-77
2021/12/24 03:47:56;;;;;;;;;;;;;;;;;;5047736;28;19928;-77
2021/12/24 03:50:24;;;;;;;;;;;;;;;;;;5047570;28;19916;-77
2021/12/24 03:53:03;;;;;;;;;;;;;;;;;;5050852;28;20301;-77
2021/12/24 03:55:28;;;;;;;;;;;;;;;;;;5047142;28;20384;-78
2021/12/24 03:57:54;;;;;;;;;;;;;;;;;;5046370;28;19959;-77
2021/12/24 04:00:30;;;;;;;;;;;;;;;;;;5054497;28;20008;-77
2021/12/24 04:02:56;;;;;;;;;;;;;;;;;;5047109;28;20368;-77
2021/12/24 04:05:21;;;;;;;;;;;;;;;;;;5052886;28;19960;-77
2021/12/24 04:07:46;;;;;;;;;;;;;;;;;;5079460;28;19913;-78
2021/12/24 04:10:31;;;;;;;;;;;;;;;;;;5048195;28;19916;-78
2021/12/24 04:12:57;;;;;;;;;;;;;;;;;;5048875;28;20307;-78
2021/12/24 04:15:22;;;;;;;;;;;;;;;;;;5044705;28;19925;-77
2021/12/24 04:17:49;;;;;;;;;;;;;;;;;;5051475;28;19920;-78
2021/12/24 04:25:43;;;;;;;;;;;;;;;;;;5046875;28;19927;-78
2021/12/24 04:28:08;;;;;;;;;;;;;;;;;;5048831;28;20016;-78
2021/12/24 04:30:40;;;;;;;;;;;;;;;;;;5048281;28;20043;-78
2021/12/24 04:33:15;;;;;;;;;;;;;;;;;;5049308;28;19974;-78
2021/12/24 04:35:56;;;;;;;;;;;;;;;;;;5075076;28;19927;-78
2021/12/24 04:51:50;;;;;;;;;;;;;;;;;;5053367;28;20011;-78
2021/12/24 05:03:10;;;;;;;;;;;;;;;;;;5053321;28;19924;-78
2021/12/24 05:05:51;;;;;;;;;;;;;;;;;;5050102;28;19955;-78
2021/12/24 05:08:21;;;;;;;;;;;;;;;;;;5049981;28;19913;-78
2021/12/24 05:10:48;;;;;;;;;;;;;;;;;;5051518;28;19978;-78
2021/12/24 05:13:16;;;;;;;;;;;;;;;;;;5050700;28;19913;-77
2021/12/24 05:15:47;;;;;;;;;;;;;;;;;;5047758;28;19927;-77
2021/12/24 05:18:28;;;;;;;;;;;;;;;;;;5045427;28;19921;-78
2021/12/24 05:23:38;;;;;;;;;;;;;;;;;;5049674;28;19927;-78
2021/12/24 05:26:03;;;;;;;;;;;;;;;;;;5049953;28;20242;-76
2021/12/24 05:28:31;;;;;;;;;;;;;;;;;;5046921;28;20015;-78
2021/12/24 05:30:57;;;;;;;;;;;;;;;;;;5074666;28;19917;-78
2021/12/24 05:33:22;;;;;;;;;;;;;;;;;;5048027;28;20456;-77
2021/12/24 05:35:47;;;;;;;;;;;;;;;;;;5049587;28;19921;-79
2021/12/24 05:38:14;;;;;;;;;;;;;;;;;;5050486;28;19912;-80
2021/12/24 05:40:39;;;;;;;;;;;;;;;;;;5051054;28;19923;-79
2021/12/24 05:43:05;;;;;;;;;;;;;;;;;;5047401;28;19921;-78
2021/12/24 05:45:30;;;;;;;;;;;;;;;;;;5078463;28;19995;-78
2021/12/24 05:47:56;;;;;;;;;;;;;;;;;;5052478;28;20338;-78
2021/12/24 05:50:21;;;;;;;;;;;;;;;;;;5072229;28;19924;-78
2021/12/24 05:52:46;;;;;;;;;;;;;;;;;;5068066;28;19959;-78
2021/12/24 05:55:14;;;;;;;;;;;;;;;;;;5076020;28;19912;-78
2021/12/24 05:57:39;;;;;;;;;;;;;;;;;;5045775;28;19920;-78
2021/12/24 06:00:06;;;;;;;;;;;;;;;;;;5046630;28;19959;-77
2021/12/24 06:02:32;;;;;;;;;;;;;;;;;;5049423;28;19921;-78
2021/12/24 06:04:57;;;;;;;;;;;;;;;;;;5049250;28;20546;-77
2021/12/24 06:07:22;;;;;;;;;;;;;;;;;;5046050;28;19919;-79
2021/12/24 06:09:50;;;;;;;;;;;;;;;;;;5051528;28;19913;-77
2021/12/24 06:12:15;;;;;;;;;;;;;;;;;;5050751;28;20392;-77
2021/12/24 06:14:44;;;;;;;;;;;;;;;;;;5048041;28;19917;-78
2021/12/24 06:17:15;;;;;;;;;;;;;;;;;;5048159;28;19912;-76
2021/12/24 06:19:42;;;;;;;;;;;;;;;;;;5048389;28;20345;-77
2021/12/24 06:22:10;;;;;;;;;;;;;;;;;;5050148;28;19932;-77
2021/12/24 06:24:38;;;;;;;;;;;;;;;;;;5045529;28;19958;-77
2021/12/24 06:27:04;;;;;;;;;;;;;;;;;;5066657;28;19944;-78
2021/12/24 06:29:30;;;;;;;;;;;;;;;;;;5048593;28;19913;-79
2021/12/24 06:31:55;;;;;;;;;;;;;;;;;;5048500;28;19999;-76
2021/12/24 06:34:20;;;;;;;;;;;;;;;;;;5049699;28;19931;-77
2021/12/24 06:36:48;;;;;;;;;;;;;;;;;;5060781;28;20203;-77
2021/12/24 06:39:14;;;;;;;;;;;;;;;;;;5052001;28;19912;-77
2021/12/24 06:41:39;;;;;;;;;;;;;;;;;;5052182;28;19928;-78
2021/12/24 06:44:09;;;;;;;;;;;;;;;;;;5054045;28;20411;-78
2021/12/24 06:46:34;;;;;;;;;;;;;;;;;;5052562;28;19916;-77
2021/12/24 06:48:59;;;;;;;;;;;;;;;;;;5052328;28;19919;-78
2021/12/24 06:51:25;;;;;;;;;;;;;;;;;;5054392;28;20361;-78
2021/12/24 06:53:51;;;;;;;;;;;;;;;;;;5054305;28;20188;-76
2021/12/24 06:56:18;;;;;;;;;;;;;;;;;;5049821;28;19920;-78
2021/12/24 06:58:44;;;;;;;;;;;;;;;;;;5054673;28;19920;-78
2021/12/24 07:01:12;;;;;;;;;;;;;;;;;;5052576;28;20294;-79
2021/12/24 07:03:37;;;;;;;;;;;;;;;;;;5070031;28;19921;-78
2021/12/24 07:06:04;;;;;;;;;;;;;;;;;;5049994;28;19921;-79
2021/12/24 07:08:32;;;;;;;;;;;;;;;;;;5054426;28;19920;-79
2021/12/24 07:10:58;;;;;;;;;;;;;;;;;;5054464;28;20383;-78
2021/12/24 07:13:24;;;;;;;;;;;;;;;;;;5052439;28;20004;-78
2021/12/24 07:15:49;;;;;;;;;;;;;;;;;;5054196;28;19917;-78
2021/12/24 07:18:15;;;;;;;;;;;;;;;;;;5054879;28;19913;-78
2021/12/24 07:20:43;;;;;;;;;;;;;;;;;;5051576;28;20002;-77
2021/12/24 07:23:08;;;;;;;;;;;;;;;;;;5049908;28;19982;-77
2021/12/24 07:25:34;;;;;;;;;;;;;;;;;;5050383;28;19913;-77
2021/12/24 07:28:01;;;;;;;;;;;;;;;;;;5049991;28;19912;-77
2021/12/24 07:30:29;;;;;;;;;;;;;;;;;;5047457;28;19913;-77
2021/12/24 07:32:56;;;;;;;;;;;;;;;;;;5054283;28;19921;-76
2021/12/24 07:35:21;;;;;;;;;;;;;;;;;;5048638;28;20391;-76
2021/12/24 07:37:47;;;;;;;;;;;;;;;;;;5045898;28;20312;-77
2021/12/24 07:40:16;;;;;;;;;;;;;;;;;;5057913;28;19980;-77
2021/12/24 07:42:46;;;;;;;;;;;;;;;;;;5052542;28;19928;-78
2021/12/24 07:45:12;;;;;;;;;;;;;;;;;;5046124;28;20245;-78
2021/12/24 07:47:41;;;;;;;;;;;;;;;;;;5050804;28;19939;-78
2021/12/24 07:53:05;;;;;;;;;;;;;;;;;;5012471;28;20258;-77
2021/12/24 07:55:32;;;;;;;;;;;;;;;;;;5049653;28;19984;-78
2021/12/24 07:57:58;;;;;;;;;;;;;;;;;;5047281;28;20023;-76
2021/12/24 08:00:26;;;;;;;;;;;;;;;;;;5049215;28;20060;-77
2021/12/24 08:02:51;;;;;;;;;;;;;;;;;;5048646;28;20027;-76
2021/12/24 08:05:19;;;;;;;;;;;;;;;;;;5046427;28;20004;-76
2021/12/24 08:07:45;;;;;;;;;;;;;;;;;;5052185;28;19913;-77
2021/12/24 08:10:10;;;;;;;;;;;;;;;;;;5048373;28;20291;-77
2021/12/24 08:12:35;;;;;;;;;;;;;;;;;;5047332;28;20058;-77
2021/12/24 08:15:06;;;;;;;;;;;;;;;;;;5049303;28;19912;-77
2021/12/24 08:17:33;;;;;;;;;;;;;;;;;;5065477;28;20000;-77
2021/12/24 08:19:59;;;;;;;;;;;;;;;;;;5045990;28;19917;-77
2021/12/24 08:22:24;;;;;;;;;;;;;;;;;;5047243;28;19925;-77
2021/12/24 08:24:52;;;;;;;;;;;;;;;;;;5071382;28;19920;-77
2021/12/24 08:27:18;;;;;;;;;;;;;;;;;;5046614;28;19912;-77
2021/12/24 08:29:44;;;;;;;;;;;;;;;;;;5045905;28;20003;-77
2021/12/24 08:32:10;;;;;;;;;;;;;;;;;;5050974;28;20007;-78
2021/12/24 08:34:35;;;;;;;;;;;;;;;;;;5046248;28;20364;-76
2021/12/24 08:37:01;;;;;;;;;;;;;;;;;;5046409;28;20054;-78
2021/12/24 08:39:26;;;;;;;;;;;;;;;;;;5050890;28;20011;-77
2021/12/24 08:41:55;;;;;;;;;;;;;;;;;;5050961;28;20300;-77
2021/12/24 08:44:27;;;;;;;;;;;;;;;;;;5048401;28;19917;-77
2021/12/24 08:46:53;;;;;;;;;;;;;;;;;;5047690;28;19956;-78
2021/12/24 08:49:20;;;;;;;;;;;;;;;;;;5044398;28;20414;-77
2021/12/24 08:51:49;;;;;;;;;;;;;;;;;;5046691;28;20371;-77
2021/12/24 08:54:16;;;;;;;;;;;;;;;;;;5048201;28;19919;-77
2021/12/24 08:56:41;;;;;;;;;;;;;;;;;;5067110;28;20016;-77
2021/12/24 08:59:10;;;;;;;;;;;;;;;;;;5047133;28;20029;-77
2021/12/24 09:01:35;;;;;;;;;;;;;;;;;;5047478;28;20383;-77
2021/12/24 09:04:01;;;;;;;;;;;;;;;;;;5051195;28;20003;-77
2021/12/24 09:06:29;;;;;;;;;;;;;;;;;;5077179;28;20314;-77
2021/12/24 09:08:54;;;;;;;;;;;;;;;;;;5050105;28;19912;-79
2021/12/24 09:11:20;;;;;;;;;;;;;;;;;;5051492;28;19978;-80
2021/12/24 09:13:45;;;;;;;;;;;;;;;;;;5049942;28;19920;-77
2021/12/24 09:16:11;;;;;;;;;;;;;;;;;;5048442;28;19916;-76
2021/12/24 09:18:41;;;;;;;;;;;;;;;;;;5047755;28;19916;-76
2021/12/24 09:21:14;;;;;;;;;;;;;;;;;;5050692;28;19939;-77
2021/12/24 09:23:39;;;;;;;;;;;;;;;;;;5049341;28;19947;-77
2021/12/24 09:26:05;;;;;;;;;;;;;;;;;;5047693;28;20410;-77
2021/12/24 09:28:30;;;;;;;;;;;;;;;;;;5046873;28;19912;-76
2021/12/24 09:30:58;;;;;;;;;;;;;;;;;;5051912;28;19912;-76
2021/12/24 09:33:24;;;;;;;;;;;;;;;;;;5048493;28;20032;-76
2021/12/24 09:35:49;;;;;;;;;;;;;;;;;;5048622;28;20627;-77
2021/12/24 09:38:15;;;;;;;;;;;;;;;;;;5045747;28;20008;-77
2021/12/24 09:40:40;;;;;;;;;;;;;;;;;;5044152;28;20058;-76
2021/12/24 09:43:06;;;;;;;;;;;;;;;;;;5044727;28;20312;-77
2021/12/24 09:45:31;;;;;;;;;;;;;;;;;;5054252;28;20387;-76
2021/12/24 09:47:56;;;;;;;;;;;;;;;;;;5044647;28;19957;-77
2021/12/24 09:50:23;;;;;;;;;;;;;;;;;;5049809;28;20400;-77
2021/12/24 09:52:49;;;;;;;;;;;;;;;;;;5048076;28;19919;-77
2021/12/24 09:55:17;;;;;;;;;;;;;;;;;;5049552;28;19916;-77
2021/12/24 09:57:45;;;;;;;;;;;;;;;;;;5046337;28;19921;-77
2021/12/24 10:00:14;;;;;;;;;;;;;;;;;;5069066;28;20291;-77
2021/12/24 10:02:45;;;;;;;;;;;;;;;;;;5049698;28;19920;-77
2021/12/24 10:05:30;;;;;;;;;;;;;;;;;;5048286;28;19921;-78
2021/12/24 10:08:07;;;;;;;;;;;;;;;;;;5046650;28;19916;-77
2021/12/24 10:10:35;;;;;;;;;;;;;;;;;;5053053;28;19917;-77
2021/12/24 10:13:22;;;;;;;;;;;;;;;;;;5048556;28;20423;-79
2021/12/24 10:15:53;;;;;;;;;;;;;;;;;;5043831;28;20238;-78
2021/12/24 10:18:28;;;;;;;;;;;;;;;;;;5050810;28;20082;-83
2021/12/24 10:20:59;;;;;;;;;;;;;;;;;;5052132;28;19995;-78
2021/12/24 10:23:57;;;;;;;;;;;;;;;;;;5051532;28;19916;-79
2021/12/24 10:26:22;;;;;;;;;;;;;;;;;;5019840;28;20016;-80
2021/12/24 10:29:11;;;;;;;;;;;;;;;;;;5044658;28;20564;-79
2021/12/24 10:31:39;;;;;;;;;;;;;;;;;;5035547;28;20311;-80
2021/12/24 10:34:23;;;;;;;;;;;;;;;;;;5054808;28;19912;-80
2021/12/24 10:36:49;;;;;;;;;;;;;;;;;;5051108;28;20288;-80
2021/12/24 10:39:17;;;;;;;;;;;;;;;;;;5049025;28;19913;-76
2021/12/24 10:41:43;;;;;;;;;;;;;;;;;;5076332;28;19916;-80
2021/12/24 10:44:19;;;;;;;;;;;;;;;;;;5045819;28;19920;-79
2021/12/24 10:47:02;;;;;;;;;;;;;;;;;;5049335;28;20326;-78
2021/12/24 10:49:48;;;;;;;;;;;;;;;;;;5048011;28;19947;-78
2021/12/24 10:53:13;;;;;;;;;;;;;;;;;;5077615;28;19917;-78
2021/12/24 10:55:08;;;;;;;;;;;;;;;;;;5044633;28;19923;-77
2021/12/24 10:57:35;;;;;;;;;;;;;;;;;;5048193;28;19942;-77
2021/12/24 11:00:03;;;;;;;;;;;;;;;;;;5066605;28;20041;-78
2021/12/24 11:02:33;;;;;;;;;;;;;;;;;;5045118;28;20326;-77
2021/12/24 11:05:01;;;;;;;;;;;;;;;;;;5047883;28;20336;-77
2021/12/24 11:07:36;;;;;;;;;;;;;;;;;;5044075;28;19928;-76
2021/12/24 11:10:09;;;;;;;;;;;;;;;;;;5046847;28;20209;-76
2021/12/24 11:12:36;;;;;;;;;;;;;;;;;;5048493;28;19943;-76
2021/12/24 11:15:01;;;;;;;;;;;;;;;;;;5050907;28;19923;-76
2021/12/24 11:17:53;;;;;;;;;;;;;;;;;;5046174;28;20171;-77
2021/12/24 11:20:18;;;;;;;;;;;;;;;;;;5039460;28;19923;-77
2021/12/24 11:22:56;;;;;;;;;;;;;;;;;;5050909;28;19924;-78
2021/12/24 11:25:25;;;;;;;;;;;;;;;;;;5051619;28;20437;-76
2021/12/24 11:27:51;;;;;;;;;;;;;;;;;;5051711;28;19912;-77
2021/12/24 11:30:17;;;;;;;;;;;;;;;;;;5044195;28;19971;-77
2021/12/24 11:32:45;;;;;;;;;;;;;;;;;;5053035;28;19958;-77
2021/12/24 11:35:11;;;;;;;;;;;;;;;;;;5050980;28;19943;-77
2021/12/24 11:37:38;;;;;;;;;;;;;;;;;;5076256;28;20376;-78
2021/12/24 11:40:06;;;;;;;;;;;;;;;;;;5047653;28;20126;-77
2021/12/24 11:42:38;;;;;;;;;;;;;;;;;;5055356;28;19916;-78
2021/12/24 11:45:06;;;;;;;;;;;;;;;;;;5053136;28;19920;-78
2021/12/24 11:47:31;;;;;;;;;;;;;;;;;;5045916;28;20026;-77
2021/12/24 11:49:57;;;;;;;;;;;;;;;;;;5049805;28;19992;-77
2021/12/24 11:52:25;;;;;;;;;;;;;;;;;;5049510;28;20327;-77
2021/12/24 11:54:55;;;;;;;;;;;;;;;;;;5048172;28;19917;-77
2021/12/24 11:57:21;;;;;;;;;;;;;;;;;;5051943;28;19927;-77
2021/12/24 11:59:47;;;;;;;;;;;;;;;;;;5071564;28;19940;-76
2021/12/24 12:02:31;;;;;;;;;;;;;;;;;;5045504;28;19960;-77
2021/12/24 12:05:09;;;;;;;;;;;;;;;;;;5046999;28;19959;-77
2021/12/24 12:07:34;;;;;;;;;;;;;;;;;;5045394;28;19920;-77
2021/12/24 12:10:03;;;;;;;;;;;;;;;;;;5051121;28;20004;-77
2021/12/24 12:12:35;;;;;;;;;;;;;;;;;;5048957;28;20062;-77
2021/12/24 12:15:19;;;;;;;;;;;;;;;;;;5048514;28;20290;-77
2021/12/24 12:18:04;;;;;;;;;;;;;;;;;;5045656;28;20058;-76
2021/12/24 12:20:49;;;;;;;;;;;;;;;;;;5050168;28;19920;-76
2021/12/24 12:23:35;;;;;;;;;;;;;;;;;;5048879;28;20354;-77
2021/12/24 12:26:00;;;;;;;;;;;;;;;;;;5048983;28;19912;-77
2021/12/24 12:28:26;;;;;;;;;;;;;;;;;;5050042;28;19927;-76
2021/12/24 12:30:54;;;;;;;;;;;;;;;;;;5045923;28;20099;-77
2021/12/24 12:33:34;;;;;;;;;;;;;;;;;;5046129;28;20309;-76
2021/12/24 12:36:02;;;;;;;;;;;;;;;;;;5049442;28;20343;-77
2021/12/24 12:38:34;;;;;;;;;;;;;;;;;;5047699;28;19924;-76
2021/12/24 12:41:21;;;;;;;;;;;;;;;;;;5077956;28;20311;-76
2021/12/24 12:43:47;;;;;;;;;;;;;;;;;;5065855;28;19956;-76
2021/12/24 12:46:39;;;;;;;;;;;;;;;;;;5047995;28;19948;-76
2021/12/24 12:49:08;;;;;;;;;;;;;;;;;;5048704;28;19944;-76
2021/12/24 12:51:46;;;;;;;;;;;;;;;;;;5052609;28;19962;-76
2021/12/24 12:54:30;;;;;;;;;;;;;;;;;;5047428;28;19916;-75
2021/12/24 12:57:14;;;;;;;;;;;;;;;;;;5047282;28;19948;-76
2021/12/24 12:59:43;;;;;;;;;;;;;;;;;;5044474;28;20031;-75
2021/12/24 13:02:11;;;;;;;;;;;;;;;;;;5049914;28;19917;-75
2021/12/24 13:04:38;;;;;;;;;;;;;;;;;;5050661;28;19916;-76
2021/12/24 13:07:04;;;;;;;;;;;;;;;;;;5045395;28;19920;-77
2021/12/24 13:09:33;;;;;;;;;;;;;;;;;;5044999;28;19969;-77
2021/12/24 13:11:59;;;;;;;;;;;;;;;;;;5049067;28;19919;-76
2021/12/24 13:14:26;;;;;;;;;;;;;;;;;;5049093;28;19916;-76
2021/12/24 13:17:31;;;;;;;;;;;;;;;;;;5070179;28;20277;-76
2021/12/24 13:25:02;;;;;;;;;;;;;;;;;;5045319;28;19912;-76
2021/12/24 13:27:50;;;;;;;;;;;;;;;;;;5049045;28;19913;-76
2021/12/24 13:30:18;;;;;;;;;;;;;;;;;;5054354;28;19912;-76
2021/12/24 13:32:49;;;;;;;;;;;;;;;;;;5053699;28;20016;-76
2021/12/24 13:35:18;;;;;;;;;;;;;;;;;;5047630;28;19923;-76
2021/12/24 13:37:47;;;;;;;;;;;;;;;;;;5070850;28;19999;-76
2021/12/24 13:40:20;;;;;;;;;;;;;;;;;;5049886;28;19916;-77
2021/12/24 13:42:49;;;;;;;;;;;;;;;;;;5074031;28;19928;-82
2021/12/24 13:45:15;;;;;;;;;;;;;;;;;;5053435;28;19919;-80
2021/12/24 13:47:54;;;;;;;;;;;;;;;;;;5049609;28;19921;-77
2021/12/24 13:55:32;;;;;;;;;;;;;;;;;;5042102;28;20420;-77
2021/12/24 13:58:02;;;;;;;;;;;;;;;;;;5043873;28;19941;-77
2021/12/24 14:00:29;;;;;;;;;;;;;;;;;;5049194;28;20319;-77
2021/12/24 14:02:57;;;;;;;;;;;;;;;;;;5071957;28;20368;-77
2021/12/24 14:05:23;;;;;;;;;;;;;;;;;;5071645;28;20375;-76
2021/12/24 14:08:09;;;;;;;;;;;;;;;;;;5044427;28;20115;-78
2021/12/24 14:10:35;;;;;;;;;;;;;;;;;;5050610;28;20397;-77
2021/12/24 14:13:06;;;;;;;;;;;;;;;;;;5050268;28;19913;-77
2021/12/24 14:16:53;;;;;;;;;;;;;;;;;;5066768;28;19917;-77
2021/12/24 14:24:03;;;;;;;;;;;;;;;;;;5046955;28;19917;-77
2021/12/24 14:26:36;;;;;;;;;;;;;;;;;;5044671;28;19921;-77
2021/12/24 14:29:08;;;;;;;;;;;;;;;;;;5041779;28;20299;-78
2021/12/24 14:31:50;;;;;;;;;;;;;;;;;;5051623;28;20402;-77
2021/12/24 14:34:28;;;;;;;;;;;;;;;;;;5046538;28;20050;-78
2021/12/24 14:37:04;;;;;;;;;;;;;;;;;;5044383;28;19913;-78
2021/12/24 14:39:37;;;;;;;;;;;;;;;;;;5048992;28;20367;-78
2021/12/24 14:42:12;;;;;;;;;;;;;;;;;;5051776;28;20024;-78
2021/12/24 14:44:38;;;;;;;;;;;;;;;;;;5044421;28;19913;-78
2021/12/24 14:47:06;;;;;;;;;;;;;;;;;;5046030;28;20296;-78
2021/12/24 14:49:37;;;;;;;;;;;;;;;;;;5060133;28;20030;-78
2021/12/24 14:52:15;;;;;;;;;;;;;;;;;;5046581;28;19912;-77
2021/12/24 14:54:59;;;;;;;;;;;;;;;;;;5048348;28;19921;-80
2021/12/24 14:57:25;;;;;;;;;;;;;;;;;;5046947;28;19913;-80
2021/12/24 14:59:51;;;;;;;;;;;;;;;;;;5060129;28;20054;-81
2021/12/24 15:02:16;;;;;;;;;;;;;;;;;;5060861;28;19931;-81
2021/12/24 15:04:41;;;;;;;;;;;;;;;;;;5065891;28;20017;-81
2021/12/24 15:07:09;;;;;;;;;;;;;;;;;;5080390;28;19924;-80
2021/12/24 15:09:39;;;;;;;;;;;;;;;;;;5056806;28;19917;-80
2021/12/24 15:12:20;;;;;;;;;;;;;;;;;;5074339;28;19920;-78
2021/12/24 15:14:50;;;;;;;;;;;;;;;;;;5050207;28;19913;-79
2021/12/24 15:17:17;;;;;;;;;;;;;;;;;;5052791;28;19928;-80
2021/12/24 15:19:45;;;;;;;;;;;;;;;;;;5054058;28;19917;-80
2021/12/24 15:22:11;;;;;;;;;;;;;;;;;;5052021;28;19912;-80
2021/12/24 15:24:36;;;;;;;;;;;;;;;;;;5052068;28;19970;-80
2021/12/24 15:27:01;;;;;;;;;;;;;;;;;;5052989;28;19917;-80
2021/12/24 15:29:27;;;;;;;;;;;;;;;;;;5051407;28;20175;-79
2021/12/24 15:31:52;;;;;;;;;;;;;;;;;;5051945;28;20363;-79
2021/12/24 15:34:18;;;;;;;;;;;;;;;;;;5057599;28;19991;-79
2021/12/24 15:36:43;;;;;;;;;;;;;;;;;;5057248;28;19916;-78
2021/12/24 15:39:08;;;;;;;;;;;;;;;;;;5053362;28;20033;-78
2021/12/24 15:41:34;;;;;;;;;;;;;;;;;;5058354;28;19917;-79
2021/12/24 15:44:06;;;;;;;;;;;;;;;;;;5051885;28;19913;-79
2021/12/24 15:46:35;;;;;;;;;;;;;;;;;;5056562;28;19927;-80
2021/12/24 15:49:00;;;;;;;;;;;;;;;;;;5055298;28;19919;-79
2021/12/24 15:51:28;;;;;;;;;;;;;;;;;;5057794;28;19917;-79
2021/12/24 15:53:55;;;;;;;;;;;;;;;;;;5052352;28;19912;-79
2021/12/24 15:56:23;;;;;;;;;;;;;;;;;;5060742;28;19964;-79
2021/12/24 15:58:48;;;;;;;;;;;;;;;;;;5082522;28;19912;-79
2021/12/24 16:01:17;;;;;;;;;;;;;;;;;;5060192;28;20007;-78
2021/12/24 16:03:42;;;;;;;;;;;;;;;;;;5060080;28;19921;-78
2021/12/24 16:06:07;;;;;;;;;;;;;;;;;;5059083;28;20020;-80
2021/12/24 16:08:33;;;;;;;;;;;;;;;;;;5053997;28;19912;-78
2021/12/24 16:10:58;;;;;;;;;;;;;;;;;;5050982;28;19912;-79
2021/12/24 16:13:24;;;;;;;;;;;;;;;;;;5054753;28;20758;-80
2021/12/24 16:15:51;;;;;;;;;;;;;;;;;;5051900;28;19925;-80
2021/12/24 16:18:17;;;;;;;;;;;;;;;;;;5050506;28;19934;-79
2021/12/24 16:20:43;;;;;;;;;;;;;;;;;;5050707;28;19943;-81
2021/12/24 16:23:09;;;;;;;;;;;;;;;;;;5055230;28;19916;-81
2021/12/24 16:25:37;;;;;;;;;;;;;;;;;;5052803;28;19920;-80
2021/12/24 16:28:03;;;;;;;;;;;;;;;;;;5051264;28;19988;-80
2021/12/24 16:30:29;;;;;;;;;;;;;;;;;;5054612;28;19920;-78
2021/12/24 16:32:54;;;;;;;;;;;;;;;;;;5053234;28;19920;-78
2021/12/24 16:35:23;;;;;;;;;;;;;;;;;;5049707;28;20362;-78
2021/12/24 16:37:49;;;;;;;;;;;;;;;;;;5075644;28;19928;-79
2021/12/24 16:40:18;;;;;;;;;;;;;;;;;;5053774;28;19912;-77
2021/12/24 16:42:47;;;;;;;;;;;;;;;;;;5051411;28;19925;-79
2021/12/24 16:45:13;;;;;;;;;;;;;;;;;;5051659;28;20346;-79
2021/12/24 16:47:38;;;;;;;;;;;;;;;;;;5057351;28;19927;-78
2021/12/24 16:50:05;;;;;;;;;;;;;;;;;;5056208;28;19920;-78
2021/12/24 16:52:30;;;;;;;;;;;;;;;;;;5050187;28;19920;-78
2021/12/24 16:54:55;;;;;;;;;;;;;;;;;;5052657;28;19916;-79
2021/12/24 16:57:21;;;;;;;;;;;;;;;;;;5056945;28;19912;-80
2021/12/24 16:59:46;;;;;;;;;;;;;;;;;;5050904;28;19912;-79
2021/12/24 17:02:13;;;;;;;;;;;;;;;;;;5051997;28;19944;-81
2021/12/24 17:04:38;;;;;;;;;;;;;;;;;;5052196;28;20004;-79
2021/12/24 17:07:05;;;;;;;;;;;;;;;;;;5072565;28;19974;-79
2021/12/24 17:09:33;;;;;;;;;;;;;;;;;;5049302;28;19921;-80
2021/12/24 17:12:04;;;;;;;;;;;;;;;;;;5060537;28;19972;-80
2021/12/24 17:14:33;;;;;;;;;;;;;;;;;;5072958;28;20007;-79
2021/12/24 17:16:59;;;;;;;;;;;;;;;;;;5070437;28;19920;-79
2021/12/24 17:19:24;;;;;;;;;;;;;;;;;;5050663;28;19921;-79
2021/12/24 17:21:51;;;;;;;;;;;;;;;;;;5052921;28;19912;-80
2021/12/24 17:24:17;;;;;;;;;;;;;;;;;;5054628;28;20256;-78
2021/12/24 17:26:42;;;;;;;;;;;;;;;;;;5052489;28;20485;-80
2021/12/24 17:29:11;;;;;;;;;;;;;;;;;;5051842;28;19967;-79
2021/12/24 17:31:38;;;;;;;;;;;;;;;;;;5051531;28;19912;-79
2021/12/24 17:34:04;;;;;;;;;;;;;;;;;;5074601;28;19920;-78
2021/12/24 17:36:31;;;;;;;;;;;;;;;;;;5054137;28;19912;-79
2021/12/24 17:38:59;;;;;;;;;;;;;;;;;;5052148;28;19912;-78
2021/12/24 17:41:24;;;;;;;;;;;;;;;;;;5049449;28;19917;-79
2021/12/24 17:43:50;;;;;;;;;;;;;;;;;;5051917;28;20172;-78
2021/12/24 17:46:15;;;;;;;;;;;;;;;;;;5052175;28;20223;-78
2021/12/24 17:48:44;;;;;;;;;;;;;;;;;;5050225;28;20411;-78
2021/12/24 17:51:09;;;;;;;;;;;;;;;;;;5050844;28;19921;-78
2021/12/24 17:53:35;;;;;;;;;;;;;;;;;;5053522;28;19923;-78
2021/12/24 17:56:00;;;;;;;;;;;;;;;;;;5051619;28;19977;-78
2021/12/24 17:58:26;;;;;;;;;;;;;;;;;;5050631;28;19912;-79
2021/12/24 18:00:51;;;;;;;;;;;;;;;;;;5051113;28;19982;-78
2021/12/24 18:03:17;;;;;;;;;;;;;;;;;;5047945;28;19920;-78
2021/12/24 18:05:42;;;;;;;;;;;;;;;;;;5073362;28;19931;-79
2021/12/24 18:08:08;;;;;;;;;;;;;;;;;;5068601;28;19976;-78
2021/12/24 18:10:33;;;;;;;;;;;;;;;;;;5053817;28;20037;-79
2021/12/24 18:12:58;;;;;;;;;;;;;;;;;;5048527;28;19928;-78
2021/12/24 18:15:29;;;;;;;;;;;;;;;;;;5051087;28;19928;-79
2021/12/24 18:17:57;;;;;;;;;;;;;;;;;;5054889;28;19916;-80
2021/12/24 18:20:25;;;;;;;;;;;;;;;;;;5055074;28;19947;-79
2021/12/24 18:22:51;;;;;;;;;;;;;;;;;;5049665;28;19916;-78
2021/12/24 18:25:19;;;;;;;;;;;;;;;;;;5055084;28;19924;-79
2021/12/24 18:27:45;;;;;;;;;;;;;;;;;;5073972;28;19974;-78
2021/12/24 18:30:10;;;;;;;;;;;;;;;;;;5053856;28;20364;-79
2021/12/24 18:32:36;;;;;;;;;;;;;;;;;;5048790;28;19952;-79
2021/12/24 18:35:03;;;;;;;;;;;;;;;;;;5054211;28;20356;-79
2021/12/24 18:37:41;;;;;;;;;;;;;;;;;;5047977;28;19913;-78
2021/12/24 18:40:07;;;;;;;;;;;;;;;;;;5050084;28;19932;-78
2021/12/24 18:42:33;;;;;;;;;;;;;;;;;;5074401;28;19916;-79
2021/12/24 18:44:58;;;;;;;;;;;;;;;;;;5050348;28;19916;-79
2021/12/24 18:47:25;;;;;;;;;;;;;;;;;;5049989;28;19952;-79
2021/12/24 18:49:50;;;;;;;;;;;;;;;;;;5053941;28;19925;-78